createdAt,value
2018-12-05T00:00:23.364Z,99.99
2018-12-05T00:01:23.352Z,99.99
2018-12-05T00:02:23.340Z,99.99
2018-12-05T00:03:23.364Z,99.99
2018-12-05T00:04:23.321Z,99.99
2018-12-05T00:05:23.324Z,99.99
2018-12-05T00:06:23.292Z,99.99
2018-12-05T00:07:23.280Z,99.99
2018-12-05T00:08:23.281Z,99.99
2018-12-05T00:09:23.260Z,99.99
2018-12-05T00:10:23.250Z,99.99
2018-12-05T00:11:23.245Z,99.99
2018-12-05T00:12:23.229Z,99.99
2018-12-05T00:13:23.220Z,99.99
2018-12-05T00:14:23.204Z,99.99
2018-12-05T00:15:23.200Z,99.99
2018-12-05T00:16:23.200Z,99.99
2018-12-05T00:17:23.176Z,99.99
2018-12-05T00:18:23.156Z,99.99
2018-12-05T00:19:23.148Z,99.99
2018-12-05T00:20:23.153Z,99.99
2018-12-05T00:21:23.128Z,99.99
2018-12-05T00:22:23.151Z,99.99
2018-12-05T00:23:23.104Z,99.99
2018-12-05T00:24:23.093Z,99.99
2018-12-05T00:25:23.077Z,99.90
2018-12-05T00:26:23.072Z,99.99
2018-12-05T00:27:23.100Z,99.99
2018-12-05T00:28:23.048Z,99.99
2018-12-05T00:29:23.032Z,99.99
2018-12-05T00:30:23.044Z,99.90
2018-12-05T00:31:23.028Z,99.69
2018-12-05T00:32:23.012Z,99.02
2018-12-05T00:33:23.036Z,99.38
2018-12-05T00:34:22.980Z,99.07
2018-12-05T00:35:22.967Z,98.55
2018-12-05T00:36:22.956Z,98.96
2018-12-05T00:37:22.952Z,98.55
2018-12-05T00:38:22.936Z,99.17
2018-12-05T00:39:22.938Z,98.75
2018-12-05T00:40:22.913Z,98.65
2018-12-05T00:41:22.929Z,98.65
2018-12-05T00:42:22.924Z,98.65
2018-12-05T00:43:22.876Z,98.86
2018-12-05T00:44:22.900Z,98.75
2018-12-05T00:45:22.869Z,98.75
2018-12-05T00:46:22.844Z,98.96
2018-12-05T00:47:22.836Z,98.82
2018-12-05T00:48:22.820Z,98.86
2018-12-05T00:49:22.817Z,99.07
2018-12-05T00:50:22.840Z,99.07
2018-12-05T00:51:22.796Z,99.07
2018-12-05T00:52:22.796Z,98.65
2018-12-05T00:53:22.776Z,98.75
2018-12-05T00:54:22.764Z,98.82
2018-12-05T00:55:22.744Z,98.65
2018-12-05T00:56:22.745Z,99.02
2018-12-05T00:57:22.741Z,98.75
2018-12-05T00:58:22.712Z,98.75
2018-12-05T00:59:22.706Z,98.86
2018-12-05T01:00:22.688Z,98.96
2018-12-05T01:01:22.692Z,99.13
2018-12-05T01:02:22.695Z,99.02
2018-12-05T01:03:22.652Z,98.60
2018-12-05T01:04:22.649Z,98.71
2018-12-05T01:05:22.644Z,98.50
2018-12-05T01:06:22.623Z,98.44
2018-12-05T01:07:22.616Z,98.82
2018-12-05T01:08:22.620Z,98.75
2018-12-05T01:09:22.592Z,98.86
2018-12-05T01:10:22.580Z,98.82
2018-12-05T01:11:22.580Z,98.86
2018-12-05T01:12:22.577Z,99.17
2018-12-05T01:13:22.560Z,98.08
2018-12-05T01:14:22.535Z,98.13
2018-12-05T01:15:22.525Z,98.34
2018-12-05T01:16:22.520Z,98.34
2018-12-05T01:17:22.508Z,97.98
2018-12-05T01:18:22.492Z,98.13
2018-12-05T01:19:22.500Z,98.08
2018-12-05T01:20:22.472Z,97.81
2018-12-05T01:21:22.456Z,97.67
2018-12-05T01:22:22.443Z,98.39
2018-12-05T01:23:22.434Z,98.19
2018-12-05T01:24:22.424Z,97.35
2018-12-05T01:25:22.423Z,97.67
2018-12-05T01:26:22.399Z,97.25
2018-12-05T01:27:22.394Z,97.56
2018-12-05T01:28:22.375Z,97.98
2018-12-05T01:29:22.379Z,97.14
2018-12-05T01:30:22.356Z,97.46
2018-12-05T01:31:22.361Z,97.46
2018-12-05T01:32:22.336Z,97.25
2018-12-05T01:33:22.332Z,97.92
2018-12-05T01:34:22.320Z,97.71
2018-12-05T01:35:22.300Z,97.56
2018-12-05T01:36:22.287Z,97.61
2018-12-05T01:37:22.288Z,97.67
2018-12-05T01:38:22.264Z,97.67
2018-12-05T01:39:22.252Z,97.81
2018-12-05T01:40:22.244Z,97.88
2018-12-05T01:41:22.231Z,97.46
2018-12-05T01:42:22.219Z,97.40
2018-12-05T01:43:22.224Z,97.71
2018-12-05T01:44:22.208Z,97.71
2018-12-05T01:45:22.202Z,97.92
2018-12-05T01:46:22.180Z,97.71
2018-12-05T01:47:22.168Z,97.40
2018-12-05T01:48:22.156Z,97.40
2018-12-05T01:49:22.159Z,97.61
2018-12-05T01:50:22.132Z,97.61
2018-12-05T01:51:22.124Z,97.50
2018-12-05T01:52:22.112Z,97.40
2018-12-05T01:53:22.101Z,97.61
2018-12-05T01:54:22.099Z,97.92
2018-12-05T01:55:22.080Z,97.81
2018-12-05T01:56:22.068Z,97.61
2018-12-05T01:57:22.055Z,97.50
2018-12-05T01:58:22.039Z,97.71
2018-12-05T01:59:22.036Z,97.30
2018-12-05T02:00:22.039Z,97.50
2018-12-05T02:01:22.014Z,97.71
2018-12-05T02:02:21.995Z,97.97
2018-12-05T02:03:22.003Z,97.50
2018-12-05T02:04:21.980Z,97.40
2018-12-05T02:05:21.967Z,97.40
2018-12-05T02:06:21.969Z,97.97
2018-12-05T02:07:21.940Z,97.97
2018-12-05T02:08:21.937Z,97.71
2018-12-05T02:09:21.920Z,97.65
2018-12-05T02:10:21.932Z,97.50
2018-12-05T02:11:21.948Z,97.44
2018-12-05T02:12:21.888Z,97.40
2018-12-05T02:13:21.880Z,97.86
2018-12-05T02:14:21.864Z,98.02
2018-12-05T02:15:21.856Z,97.92
2018-12-05T02:16:21.848Z,97.81
2018-12-05T02:17:21.856Z,98.13
2018-12-05T02:18:21.844Z,98.38
2018-12-05T02:19:21.824Z,98.69
2018-12-05T02:20:21.798Z,98.80
2018-12-05T02:21:21.800Z,98.69
2018-12-05T02:22:21.800Z,99.01
2018-12-05T02:23:21.767Z,98.90
2018-12-05T02:24:21.768Z,98.80
2018-12-05T02:25:21.745Z,98.69
2018-12-05T02:26:21.732Z,98.80
2018-12-05T02:27:21.734Z,98.65
2018-12-05T02:28:21.732Z,98.69
2018-12-05T02:29:21.700Z,98.75
2018-12-05T02:30:21.692Z,98.96
2018-12-05T02:31:21.676Z,99.07
2018-12-05T02:32:21.669Z,98.96
2018-12-05T02:33:21.653Z,98.75
2018-12-05T02:34:21.668Z,99.17
2018-12-05T02:35:21.644Z,98.34
2018-12-05T02:36:21.639Z,98.13
2018-12-05T02:37:21.607Z,98.18
2018-12-05T02:38:21.624Z,98.02
2018-12-05T02:39:21.626Z,98.02
2018-12-05T02:40:21.580Z,97.86
2018-12-05T02:41:21.573Z,97.86
2018-12-05T02:42:21.560Z,97.86
2018-12-05T02:43:21.543Z,98.02
2018-12-05T02:44:21.542Z,97.65
2018-12-05T02:45:21.533Z,97.86
2018-12-05T02:46:21.507Z,97.55
2018-12-05T02:47:21.496Z,97.65
2018-12-05T02:48:21.488Z,97.86
2018-12-05T02:49:21.497Z,98.07
2018-12-05T02:50:21.488Z,97.75
2018-12-05T02:51:21.452Z,97.86
2018-12-05T02:52:21.443Z,97.86
2018-12-05T02:53:21.429Z,97.65
2018-12-05T02:54:21.420Z,97.65
2018-12-05T02:55:21.411Z,97.70
2018-12-05T02:56:21.407Z,97.91
2018-12-05T02:57:21.389Z,97.97
2018-12-05T02:58:21.380Z,98.11
2018-12-05T02:59:21.382Z,98.01
2018-12-05T03:00:21.357Z,98.11
2018-12-05T03:01:21.356Z,98.43
2018-12-05T03:02:21.336Z,98.32
2018-12-05T03:03:21.321Z,98.11
2018-12-05T03:04:21.311Z,99.16
2018-12-05T03:05:21.299Z,99.16
2018-12-05T03:06:21.295Z,98.63
2018-12-05T03:07:21.285Z,98.85
2018-12-05T03:08:21.263Z,98.74
2018-12-05T03:09:21.251Z,98.74
2018-12-05T03:10:21.256Z,99.16
2018-12-05T03:11:21.230Z,99.05
2018-12-05T03:12:21.231Z,99.16
2018-12-05T03:13:21.217Z,98.74
2018-12-05T03:14:21.198Z,98.01
2018-12-05T03:15:21.199Z,98.32
2018-12-05T03:16:21.223Z,98.22
2018-12-05T03:17:21.178Z,98.11
2018-12-05T03:18:21.154Z,98.11
2018-12-05T03:19:21.198Z,98.16
2018-12-05T03:20:21.130Z,98.22
2018-12-05T03:21:21.119Z,98.22
2018-12-05T03:22:21.111Z,98.47
2018-12-05T03:23:21.099Z,98.47
2018-12-05T03:24:21.082Z,98.26
2018-12-05T03:25:21.083Z,98.47
2018-12-05T03:26:21.063Z,98.26
2018-12-05T03:27:21.058Z,98.26
2018-12-05T03:28:21.039Z,98.26
2018-12-05T03:29:21.039Z,98.58
2018-12-05T03:30:21.061Z,98.16
2018-12-05T03:31:21.007Z,98.99
2018-12-05T03:32:20.994Z,98.83
2018-12-05T03:33:21.012Z,98.99
2018-12-05T03:34:20.999Z,99.10
2018-12-05T03:35:20.963Z,99.20
2018-12-05T03:36:20.963Z,98.83
2018-12-05T03:37:20.938Z,98.93
2018-12-05T03:38:20.928Z,98.83
2018-12-05T03:39:20.928Z,99.15
2018-12-05T03:40:20.906Z,98.72
2018-12-05T03:41:20.911Z,99.35
2018-12-05T03:42:20.882Z,99.25
2018-12-05T03:43:20.877Z,99.35
2018-12-05T03:44:20.862Z,99.56
2018-12-05T03:45:20.848Z,99.56
2018-12-05T03:46:20.839Z,99.71
2018-12-05T03:47:20.836Z,99.99
2018-12-05T03:48:20.815Z,99.99
2018-12-05T03:49:20.802Z,99.92
2018-12-05T03:50:20.807Z,99.99
2018-12-05T03:51:20.780Z,99.99
2018-12-05T03:52:20.786Z,99.99
2018-12-05T03:53:20.760Z,99.92
2018-12-05T03:54:20.750Z,99.71
2018-12-05T03:55:20.779Z,99.99
2018-12-05T03:56:20.722Z,99.99
2018-12-05T03:57:20.711Z,99.99
2018-12-05T03:58:20.718Z,99.99
2018-12-05T03:59:20.690Z,99.99
2018-12-05T04:00:20.679Z,99.99
2018-12-05T04:01:20.670Z,99.99
2018-12-05T04:02:20.661Z,99.99
2018-12-05T04:03:20.647Z,99.99
2018-12-05T04:04:20.658Z,99.55
2018-12-05T04:05:20.631Z,99.99
2018-12-05T04:06:20.614Z,99.99
2018-12-05T04:07:20.602Z,99.99
2018-12-05T04:08:20.591Z,99.86
2018-12-05T04:09:20.582Z,99.96
2018-12-05T04:10:20.590Z,99.99
2018-12-05T04:11:20.558Z,99.99
2018-12-05T04:12:20.569Z,99.99
2018-12-05T04:13:20.532Z,99.99
2018-12-05T04:14:20.526Z,99.99
2018-12-05T04:15:20.511Z,99.99
2018-12-05T04:16:20.519Z,99.99
2018-12-05T04:17:20.487Z,99.99
2018-12-05T04:18:20.482Z,99.99
2018-12-05T04:19:20.471Z,99.99
2018-12-05T04:20:20.455Z,99.99
2018-12-05T04:21:20.463Z,99.99
2018-12-05T04:22:20.454Z,99.99
2018-12-05T04:23:20.426Z,99.99
2018-12-05T04:24:20.414Z,99.99
2018-12-05T04:25:20.401Z,99.99
2018-12-05T04:26:20.394Z,99.99
2018-12-05T04:27:20.379Z,99.99
2018-12-05T04:28:20.382Z,99.99
2018-12-05T04:29:20.374Z,99.99
2018-12-05T04:30:20.350Z,99.99
2018-12-05T04:31:20.340Z,99.99
2018-12-05T04:32:20.320Z,99.99
2018-12-05T04:33:20.318Z,99.99
2018-12-05T04:34:20.319Z,99.99
2018-12-05T04:35:20.295Z,99.99
2018-12-05T04:36:20.324Z,99.99
2018-12-05T04:37:20.268Z,99.99
2018-12-05T04:38:20.259Z,99.99
2018-12-05T04:39:20.243Z,99.99
2018-12-05T04:40:20.256Z,99.99
2018-12-05T04:41:20.227Z,99.99
2018-12-05T04:42:20.215Z,99.99
2018-12-05T04:43:20.198Z,99.99
2018-12-05T04:44:20.202Z,99.99
2018-12-05T04:45:20.189Z,99.99
2018-12-05T04:46:20.174Z,99.99
2018-12-05T04:47:20.163Z,99.99
2018-12-05T04:48:20.147Z,99.99
2018-12-05T04:49:20.135Z,99.99
2018-12-05T04:50:20.143Z,99.99
2018-12-05T04:51:20.116Z,99.99
2018-12-05T04:52:20.103Z,99.99
2018-12-05T04:53:20.091Z,99.99
2018-12-05T04:54:20.085Z,99.99
2018-12-05T04:55:20.071Z,99.99
2018-12-05T04:56:20.083Z,99.99
2018-12-05T04:57:20.042Z,99.99
2018-12-05T04:58:20.036Z,99.99
2018-12-05T04:59:20.026Z,99.99
2018-12-05T05:00:20.022Z,99.99
2018-12-05T05:01:20.019Z,99.99
2018-12-05T05:02:19.991Z,99.99
2018-12-05T05:03:19.994Z,99.99
2018-12-05T05:04:19.966Z,99.99
2018-12-05T05:05:19.958Z,99.99
2018-12-05T05:06:19.947Z,99.99
2018-12-05T05:07:19.960Z,99.99
2018-12-05T05:08:19.926Z,99.99
2018-12-05T05:09:19.955Z,99.99
2018-12-05T05:10:19.911Z,99.99
2018-12-05T05:11:19.895Z,99.99
2018-12-05T05:12:19.878Z,99.99
2018-12-05T05:13:19.891Z,99.99
2018-12-05T05:14:19.862Z,99.99
2018-12-05T05:15:19.850Z,99.99
2018-12-05T05:16:19.839Z,99.99
2018-12-05T05:17:19.818Z,99.99
2018-12-05T05:18:19.815Z,99.99
2018-12-05T05:19:19.816Z,99.99
2018-12-05T05:20:19.787Z,99.99
2018-12-05T05:21:19.779Z,99.99
2018-12-05T05:22:19.768Z,99.99
2018-12-05T05:23:19.759Z,99.99
2018-12-05T05:24:19.774Z,99.99
2018-12-05T05:25:19.730Z,99.99
2018-12-05T05:26:19.731Z,99.99
2018-12-05T05:27:19.715Z,99.99
2018-12-05T05:28:19.703Z,99.99
2018-12-05T05:29:19.693Z,99.99
2018-12-05T05:30:19.699Z,99.99
2018-12-05T05:31:19.672Z,99.99
2018-12-05T05:32:19.684Z,99.99
2018-12-05T05:33:19.672Z,99.99
2018-12-05T05:34:19.640Z,99.99
2018-12-05T05:35:19.632Z,99.99
2018-12-05T05:36:19.619Z,99.99
2018-12-05T05:37:19.603Z,99.99
2018-12-05T05:38:19.592Z,99.99
2018-12-05T05:39:19.580Z,99.99
2018-12-05T05:40:19.575Z,99.99
2018-12-05T05:41:19.579Z,99.99
2018-12-05T05:42:19.562Z,99.99
2018-12-05T05:43:19.534Z,99.99
2018-12-05T05:44:19.527Z,99.99
2018-12-05T05:45:19.519Z,99.99
2018-12-05T05:46:19.503Z,99.99
2018-12-05T05:47:19.499Z,99.99
2018-12-05T05:48:19.519Z,99.99
2018-12-05T05:49:19.513Z,99.99
2018-12-05T05:50:20.661Z,99.99
2018-12-05T05:51:19.467Z,99.99
2018-12-05T05:52:19.440Z,99.99
2018-12-05T05:53:19.427Z,99.99
2018-12-05T05:54:19.436Z,99.99
2018-12-05T05:55:19.404Z,99.99
2018-12-05T05:56:19.396Z,99.99
2018-12-05T05:57:19.446Z,99.99
2018-12-05T05:58:19.376Z,99.99
2018-12-05T05:59:19.376Z,99.99
2018-12-05T06:00:19.364Z,99.99
2018-12-05T06:01:19.341Z,99.99
2018-12-05T06:02:20.329Z,99.99
2018-12-05T06:03:19.320Z,99.99
2018-12-05T06:04:19.327Z,99.99
2018-12-05T06:05:19.296Z,99.99
2018-12-05T06:06:19.295Z,99.99
2018-12-05T06:07:19.275Z,99.99
2018-12-05T06:08:19.270Z,99.99
2018-12-05T06:09:19.253Z,99.99
2018-12-05T06:10:19.261Z,99.99
2018-12-05T06:11:19.233Z,99.99
2018-12-05T06:12:19.230Z,99.99
2018-12-05T06:13:19.210Z,99.99
2018-12-05T06:14:19.198Z,99.99
2018-12-05T06:15:19.189Z,99.99
2018-12-05T06:16:19.189Z,99.99
2018-12-05T06:18:08.220Z,99.99
2018-12-05T06:19:08.204Z,99.99
2018-12-05T06:20:15.240Z,99.99
2018-12-05T06:21:08.188Z,99.99
2018-12-05T06:22:08.184Z,99.99
2018-12-05T06:23:08.160Z,99.99
2018-12-05T06:24:08.156Z,99.99
2018-12-05T06:25:08.145Z,99.99
2018-12-05T06:26:08.133Z,99.99
2018-12-05T06:27:08.152Z,99.99
2018-12-05T06:28:08.112Z,99.99
2018-12-05T06:29:08.120Z,99.99
2018-12-05T06:30:08.107Z,99.99
2018-12-05T06:31:08.104Z,99.99
2018-12-05T06:32:08.068Z,99.99
2018-12-05T06:33:08.068Z,99.99
2018-12-05T06:34:08.068Z,99.99
2018-12-05T06:35:08.036Z,99.99
2018-12-05T06:36:08.024Z,99.99
2018-12-05T06:37:08.012Z,99.99
2018-12-05T06:38:08.025Z,99.99
2018-12-05T06:39:07.993Z,99.99
2018-12-05T06:40:08.008Z,99.99
2018-12-05T06:41:07.976Z,99.99
2018-12-05T06:42:07.962Z,99.99
2018-12-05T06:43:07.948Z,99.99
2018-12-05T06:44:07.944Z,99.99
2018-12-05T06:45:07.927Z,99.99
2018-12-05T06:46:07.968Z,99.99
2018-12-05T06:47:07.904Z,99.99
2018-12-05T06:48:07.898Z,99.99
2018-12-05T06:49:07.889Z,99.99
2018-12-05T06:50:07.904Z,99.99
2018-12-05T06:51:07.866Z,99.99
2018-12-05T06:52:07.880Z,99.99
2018-12-05T06:53:07.843Z,99.99
2018-12-05T06:54:07.920Z,99.99
2018-12-05T06:55:07.824Z,99.99
2018-12-05T06:56:07.807Z,99.99
2018-12-05T06:57:07.801Z,99.99
2018-12-05T06:58:07.817Z,99.99
2018-12-05T06:59:07.778Z,99.99
2018-12-05T07:00:08.247Z,99.99
2018-12-05T07:01:07.784Z,99.99
2018-12-05T07:02:07.752Z,99.99
2018-12-05T07:03:07.745Z,99.99
2018-12-05T07:04:07.756Z,99.99
2018-12-05T07:05:07.715Z,99.99
2018-12-05T07:06:07.723Z,99.99
2018-12-05T07:07:07.692Z,99.99
2018-12-05T07:08:07.704Z,99.99
2018-12-05T07:09:07.936Z,99.99
2018-12-05T07:10:07.658Z,99.99
2018-12-05T07:11:07.647Z,99.99
2018-12-05T07:12:07.655Z,99.99
2018-12-05T07:13:07.628Z,99.99
2018-12-05T07:14:07.618Z,99.99
2018-12-05T07:15:07.607Z,99.99
2018-12-05T07:16:07.593Z,99.99
2018-12-05T07:17:07.578Z,99.99
2018-12-05T07:18:07.587Z,99.99
2018-12-05T07:19:07.559Z,99.99
2018-12-05T07:20:07.545Z,99.99
2018-12-05T07:21:07.538Z,99.99
2018-12-05T07:22:07.528Z,99.99
2018-12-05T07:23:07.520Z,99.99
2018-12-05T07:24:09.005Z,99.99
2018-12-05T07:25:07.496Z,99.99
2018-12-05T07:26:07.485Z,99.99
2018-12-05T07:27:07.477Z,99.99
2018-12-05T07:28:07.464Z,99.99
2018-12-05T07:29:07.462Z,99.99
2018-12-05T07:30:07.455Z,99.99
2018-12-05T07:31:07.431Z,99.99
2018-12-05T07:32:07.420Z,99.99
2018-12-05T07:33:07.407Z,99.99
2018-12-05T07:34:07.402Z,99.99
2018-12-05T07:35:07.388Z,99.99
2018-12-05T07:36:07.409Z,99.99
2018-12-05T07:37:07.375Z,99.99
2018-12-05T07:38:07.360Z,99.99
2018-12-05T07:39:07.344Z,99.99
2018-12-05T07:40:07.344Z,99.99
2018-12-05T07:41:07.324Z,99.99
2018-12-05T07:42:07.336Z,99.99
2018-12-05T07:43:07.309Z,99.99
2018-12-05T07:44:07.292Z,99.99
2018-12-05T07:45:07.280Z,99.99
2018-12-05T07:46:07.269Z,99.99
2018-12-05T07:47:07.299Z,99.99
2018-12-05T07:48:07.247Z,99.99
2018-12-05T07:49:07.251Z,99.99
2018-12-05T07:50:07.227Z,99.99
2018-12-05T07:51:07.222Z,99.99
2018-12-05T07:52:07.204Z,99.99
2018-12-05T07:53:07.208Z,99.99
2018-12-05T07:54:07.187Z,99.99
2018-12-05T07:55:07.187Z,99.99
2018-12-05T07:56:07.207Z,99.99
2018-12-05T07:57:07.152Z,99.99
2018-12-05T07:58:07.156Z,99.99
2018-12-05T07:59:07.139Z,99.99
2018-12-05T08:00:07.124Z,99.99
2018-12-05T08:01:07.108Z,99.99
2018-12-05T08:02:07.110Z,99.99
2018-12-05T08:03:07.088Z,99.99
2018-12-05T08:04:07.092Z,99.99
2018-12-05T08:05:07.064Z,99.99
2018-12-05T08:06:07.052Z,99.99
2018-12-05T08:07:07.044Z,99.99
2018-12-05T08:08:07.047Z,99.99
2018-12-05T08:09:07.043Z,99.99
2018-12-05T08:10:07.039Z,99.99
2018-12-05T08:11:07.000Z,99.99
2018-12-05T08:12:07.079Z,99.99
2018-12-05T08:13:06.976Z,99.99
2018-12-05T08:14:06.964Z,99.99
2018-12-05T08:15:06.971Z,99.99
2018-12-05T08:16:06.955Z,99.99
2018-12-05T08:17:06.931Z,99.99
2018-12-05T08:18:06.923Z,99.99
2018-12-05T08:19:06.911Z,99.99
2018-12-05T08:20:06.899Z,99.99
2018-12-05T08:21:06.915Z,99.99
2018-12-05T08:22:06.875Z,99.99
2018-12-05T08:23:06.867Z,99.99
2018-12-05T08:24:06.855Z,99.99
2018-12-05T08:25:06.847Z,99.99
2018-12-05T08:26:06.887Z,99.99
2018-12-05T08:27:06.819Z,99.99
2018-12-05T08:28:06.807Z,99.99
2018-12-05T08:29:06.853Z,99.99
2018-12-05T08:30:06.787Z,99.99
2018-12-05T08:31:06.775Z,99.99
2018-12-05T08:32:06.783Z,99.99
2018-12-05T08:33:06.758Z,99.99
2018-12-05T08:34:06.745Z,99.99
2018-12-05T08:35:06.739Z,99.99
2018-12-05T08:36:06.719Z,99.99
2018-12-05T08:37:06.722Z,99.99
2018-12-05T08:38:06.716Z,99.73
2018-12-05T08:39:06.695Z,99.93
2018-12-05T08:40:06.674Z,99.83
2018-12-05T08:41:06.697Z,99.99
2018-12-05T08:42:06.650Z,99.73
2018-12-05T08:43:06.674Z,99.99
2018-12-05T08:44:06.651Z,99.99
2018-12-05T08:45:06.638Z,99.99
2018-12-05T08:46:06.606Z,99.89
2018-12-05T08:47:06.598Z,99.89
2018-12-05T08:48:06.594Z,99.93
2018-12-05T08:49:06.599Z,99.99
2018-12-05T08:50:06.563Z,99.99
2018-12-05T08:51:06.550Z,99.89
2018-12-05T08:52:06.546Z,99.89
2018-12-05T08:53:06.526Z,99.89
2018-12-05T08:54:06.522Z,99.99
2018-12-05T08:55:06.534Z,99.89
2018-12-05T08:56:06.495Z,99.74
2018-12-05T08:57:06.487Z,99.84
2018-12-05T08:58:06.484Z,99.63
2018-12-05T08:59:06.467Z,99.95
2018-12-05T09:00:06.450Z,99.84
2018-12-05T09:01:06.478Z,99.84
2018-12-05T09:02:06.434Z,99.63
2018-12-05T09:03:06.422Z,99.74
2018-12-05T09:04:06.412Z,99.11
2018-12-05T09:05:06.398Z,98.96
2018-12-05T09:06:06.394Z,99.11
2018-12-05T09:07:06.391Z,98.18
2018-12-05T09:08:06.366Z,98.13
2018-12-05T09:09:06.354Z,98.02
2018-12-05T09:10:06.342Z,98.13
2018-12-05T09:11:06.337Z,97.71
2018-12-05T09:12:06.334Z,97.61
2018-12-05T09:13:06.318Z,97.50
2018-12-05T09:14:06.314Z,97.40
2018-12-05T09:15:07.236Z,97.56
2018-12-05T09:16:06.278Z,97.14
2018-12-05T09:17:06.306Z,97.10
2018-12-05T09:18:06.274Z,97.00
2018-12-05T09:19:06.246Z,97.56
2018-12-05T09:20:06.232Z,97.62
2018-12-05T09:21:06.222Z,97.56
2018-12-05T09:22:06.210Z,97.31
2018-12-05T09:23:06.239Z,97.31
2018-12-05T09:24:06.190Z,97.31
2018-12-05T09:25:06.178Z,97.72
2018-12-05T09:26:06.170Z,97.10
2018-12-05T09:27:06.248Z,97.27
2018-12-05T09:28:06.150Z,97.89
2018-12-05T09:29:06.146Z,97.78
2018-12-05T09:30:06.126Z,97.78
2018-12-05T09:31:06.110Z,97.58
2018-12-05T09:32:06.095Z,97.58
2018-12-05T09:33:06.094Z,97.58
2018-12-05T09:34:06.109Z,97.47
2018-12-05T09:35:06.066Z,97.01
2018-12-05T09:36:06.055Z,97.06
2018-12-05T09:37:06.046Z,97.37
2018-12-05T09:38:06.034Z,96.95
2018-12-05T09:39:06.026Z,97.43
2018-12-05T09:40:06.026Z,96.70
2018-12-05T09:41:05.998Z,96.08
2018-12-05T09:42:05.994Z,96.39
2018-12-05T09:43:05.978Z,97.12
2018-12-05T09:44:05.968Z,97.01
2018-12-05T09:45:05.966Z,96.97
2018-12-05T09:46:05.974Z,97.43
2018-12-05T09:47:05.945Z,96.97
2018-12-05T09:48:05.929Z,96.45
2018-12-05T09:49:05.913Z,96.03
2018-12-05T09:50:05.939Z,95.93
2018-12-05T09:51:05.903Z,95.99
2018-12-05T09:52:05.890Z,96.20
2018-12-05T09:53:05.878Z,95.89
2018-12-05T09:54:05.867Z,96.30
2018-12-05T09:55:05.918Z,95.99
2018-12-05T09:56:05.842Z,95.57
2018-12-05T09:57:05.856Z,95.32
2018-12-05T09:58:05.823Z,95.21
2018-12-05T09:59:05.822Z,95.42
2018-12-05T10:00:05.830Z,95.32
2018-12-05T10:01:05.778Z,95.84
2018-12-05T10:02:05.790Z,95.53
2018-12-05T10:03:05.782Z,94.86
2018-12-05T10:04:05.754Z,94.34
2018-12-05T10:05:05.813Z,93.82
2018-12-05T10:06:05.723Z,93.41
2018-12-05T10:07:05.718Z,93.20
2018-12-05T10:08:05.706Z,92.88
2018-12-05T10:09:05.730Z,93.20
2018-12-05T10:10:05.686Z,93.05
2018-12-05T10:11:05.666Z,93.20
2018-12-05T10:12:05.709Z,93.47
2018-12-05T10:13:05.673Z,94.20
2018-12-05T10:14:05.644Z,93.88
2018-12-05T10:15:05.649Z,93.62
2018-12-05T10:16:05.618Z,94.61
2018-12-05T10:17:05.606Z,94.51
2018-12-05T10:18:05.638Z,94.36
2018-12-05T10:19:05.581Z,94.15
2018-12-05T10:20:05.579Z,93.95
2018-12-05T10:21:05.586Z,94.57
2018-12-05T10:22:05.557Z,93.95
2018-12-05T10:23:05.550Z,93.53
2018-12-05T10:24:05.535Z,93.28
2018-12-05T10:25:05.520Z,93.28
2018-12-05T10:26:05.518Z,93.12
2018-12-05T10:27:05.493Z,94.63
2018-12-05T10:28:05.482Z,92.97
2018-12-05T10:29:05.473Z,93.23
2018-12-05T10:30:05.469Z,93.33
2018-12-05T10:31:05.461Z,92.78
2018-12-05T10:32:05.459Z,92.16
2018-12-05T10:33:05.478Z,91.22
2018-12-05T10:34:05.413Z,91.74
2018-12-05T10:35:05.470Z,91.80
2018-12-05T10:36:05.390Z,90.91
2018-12-05T10:37:05.386Z,90.25
2018-12-05T10:38:05.398Z,91.33
2018-12-05T10:39:05.372Z,91.08
2018-12-05T10:40:05.358Z,90.60
2018-12-05T10:41:05.349Z,90.08
2018-12-05T10:42:05.333Z,91.08
2018-12-05T10:43:05.312Z,90.56
2018-12-05T10:44:05.335Z,90.56
2018-12-05T10:45:05.317Z,91.64
2018-12-05T10:46:05.280Z,91.28
2018-12-05T10:47:05.269Z,91.49
2018-12-05T10:48:05.261Z,91.80
2018-12-05T10:49:05.293Z,91.91
2018-12-05T10:50:05.276Z,91.49
2018-12-05T10:51:05.235Z,91.39
2018-12-05T10:52:05.209Z,90.45
2018-12-05T10:53:05.218Z,90.31
2018-12-05T10:54:05.192Z,90.04
2018-12-05T10:55:05.197Z,89.31
2018-12-05T10:56:05.221Z,90.25
2018-12-05T10:57:05.161Z,89.21
2018-12-05T10:58:05.154Z,88.39
2018-12-05T10:59:05.148Z,88.59
2018-12-05T11:00:05.137Z,88.79
2018-12-05T11:01:05.139Z,88.79
2018-12-05T11:02:05.126Z,89.52
2018-12-05T11:03:05.094Z,90.25
2018-12-05T11:04:05.092Z,88.96
2018-12-05T11:05:05.109Z,88.59
2018-12-05T11:06:05.077Z,88.65
2018-12-05T11:07:05.082Z,89.11
2018-12-05T11:08:05.033Z,89.07
2018-12-05T11:09:05.045Z,89.11
2018-12-05T11:10:05.013Z,88.59
2018-12-05T11:11:05.017Z,89.07
2018-12-05T11:12:04.992Z,89.11
2018-12-05T11:13:05.000Z,89.42
2018-12-05T11:14:05.010Z,88.90
2018-12-05T11:15:04.956Z,89.31
2018-12-05T11:16:04.944Z,88.39
2018-12-05T11:17:04.933Z,88.90
2018-12-05T11:18:04.924Z,89.52
2018-12-05T11:19:04.986Z,88.65
2018-12-05T11:20:04.904Z,88.65
2018-12-05T11:21:04.895Z,88.55
2018-12-05T11:22:04.924Z,88.96
2018-12-05T11:23:04.871Z,88.86
2018-12-05T11:24:04.861Z,88.76
2018-12-05T11:25:04.868Z,89.07
2018-12-05T11:26:04.841Z,88.13
2018-12-05T11:27:04.844Z,88.13
2018-12-05T11:28:04.817Z,88.13
2018-12-05T11:29:04.804Z,87.27
2018-12-05T11:30:04.801Z,87.06
2018-12-05T11:31:04.812Z,87.16
2018-12-05T11:32:04.796Z,87.57
2018-12-05T11:33:04.756Z,87.06
2018-12-05T11:34:04.747Z,87.57
2018-12-05T11:35:04.744Z,87.16
2018-12-05T11:36:04.738Z,87.68
2018-12-05T11:37:04.734Z,87.78
2018-12-05T11:38:04.708Z,87.12
2018-12-05T11:39:04.690Z,87.12
2018-12-05T11:40:04.680Z,87.43
2018-12-05T11:41:04.672Z,87.43
2018-12-05T11:42:04.754Z,87.16
2018-12-05T11:43:14.400Z,87.23
2018-12-05T11:44:04.636Z,87.23
2018-12-05T11:45:04.626Z,87.16
2018-12-05T11:46:04.608Z,87.23
2018-12-05T11:47:04.605Z,87.68
2018-12-05T11:48:04.608Z,87.12
2018-12-05T11:49:04.577Z,88.06
2018-12-05T11:50:04.568Z,88.06
2018-12-05T11:51:04.559Z,86.75
2018-12-05T11:52:04.548Z,86.81
2018-12-05T11:53:04.544Z,87.33
2018-12-05T11:54:04.573Z,87.47
2018-12-05T11:55:04.512Z,87.54
2018-12-05T11:56:04.504Z,87.95
2018-12-05T11:57:04.505Z,87.33
2018-12-05T11:58:04.489Z,87.74
2018-12-05T11:59:04.473Z,87.64
2018-12-05T12:00:04.476Z,87.95
2018-12-05T12:01:04.450Z,87.64
2018-12-05T12:02:04.441Z,88.26
2018-12-05T12:03:04.448Z,88.26
2018-12-05T12:04:04.438Z,88.16
2018-12-05T12:05:04.428Z,87.33
2018-12-05T12:06:04.407Z,87.33
2018-12-05T12:07:04.390Z,88.78
2018-12-05T12:08:13.324Z,87.74
2018-12-05T12:09:04.363Z,86.91
2018-12-05T12:10:04.352Z,87.74
2018-12-05T12:11:04.360Z,88.46
2018-12-05T12:12:04.363Z,88.67
2018-12-05T12:13:04.331Z,87.33
2018-12-05T12:14:04.307Z,87.23
2018-12-05T12:15:04.297Z,87.02
2018-12-05T12:16:04.285Z,87.43
2018-12-05T12:17:04.292Z,88.16
2018-12-05T12:18:04.272Z,87.54
2018-12-05T12:19:04.252Z,87.23
2018-12-05T12:20:04.264Z,87.54
2018-12-05T12:21:04.224Z,86.91
2018-12-05T12:22:04.232Z,87.23
2018-12-05T12:23:04.204Z,86.50
2018-12-05T12:24:04.192Z,86.29
2018-12-05T12:25:04.185Z,85.99
2018-12-05T12:26:04.191Z,86.29
2018-12-05T12:27:04.160Z,87.12
2018-12-05T12:28:04.164Z,87.23
2018-12-05T12:29:04.144Z,87.23
2018-12-05T12:30:04.124Z,87.43
2018-12-05T12:31:04.136Z,88.06
2018-12-05T12:32:04.113Z,87.95
2018-12-05T12:33:04.108Z,88.06
2018-12-05T12:34:04.092Z,87.85
2018-12-05T12:35:04.073Z,88.26
2018-12-05T12:36:04.064Z,88.36
2018-12-05T12:37:04.052Z,88.26
2018-12-05T12:38:04.040Z,87.95
2018-12-05T12:39:04.040Z,87.95
2018-12-05T12:40:04.039Z,87.74
2018-12-05T12:41:04.008Z,87.95
2018-12-05T12:42:03.998Z,88.26
2018-12-05T12:43:03.989Z,87.95
2018-12-05T12:44:03.968Z,88.06
2018-12-05T12:45:04.017Z,88.16
2018-12-05T12:46:03.948Z,88.06
2018-12-05T12:47:03.964Z,87.95
2018-12-05T12:48:03.933Z,87.43
2018-12-05T12:49:03.912Z,87.33
2018-12-05T12:50:03.904Z,87.54
2018-12-05T12:51:03.932Z,87.43
2018-12-05T12:52:03.991Z,88.09
2018-12-05T12:53:03.868Z,87.95